createdAt,value
2022-09-15T00:02:03.129Z,99129.41
2022-09-15T00:04:30.965Z,99119.97
2022-09-15T00:06:58.715Z,99121.28
2022-09-15T00:09:26.873Z,99114.31
2022-09-15T00:11:54.628Z,99116.16
2022-09-15T00:14:22.323Z,99105.69
2022-09-15T00:16:50.218Z,99109.16
2022-09-15T00:19:18.087Z,99108.88
2022-09-15T00:21:45.880Z,99103.50
2022-09-15T00:24:26.080Z,99103.22
2022-09-15T00:26:59.954Z,99100.00
2022-09-15T00:29:27.902Z,99105.38
2022-09-15T00:31:55.581Z,99104.31
2022-09-15T00:34:23.301Z,99106.41
2022-09-15T00:36:51.198Z,99113.66
2022-09-15T00:39:19.077Z,99127.03
2022-09-15T00:41:46.775Z,99126.78
2022-09-15T00:44:14.403Z,99127.34
2022-09-15T00:46:58.724Z,99130.91
2022-09-15T00:49:35.918Z,99125.03
2022-09-15T00:52:32.242Z,99131.25
2022-09-15T00:55:08.519Z,99128.06
2022-09-15T00:57:46.027Z,99125.94
2022-09-15T01:00:18.444Z,99121.72
2022-09-15T01:02:48.573Z,99123.63
2022-09-15T01:05:18.896Z,99118.53
2022-09-15T01:07:52.891Z,99106.00
2022-09-15T01:10:33.150Z,99103.31
2022-09-15T01:13:04.151Z,99101.13
2022-09-15T01:15:46.923Z,99099.25
2022-09-15T01:18:35.065Z,99103.03
2022-09-15T01:21:22.165Z,99101.41
2022-09-15T01:24:25.289Z,99094.16
2022-09-15T01:27:40.509Z,99089.59
2022-09-15T01:30:16.188Z,99086.56
2022-09-15T01:33:04.851Z,99085.50
2022-09-15T01:36:09.295Z,99085.50
2022-09-15T01:39:30.602Z,99072.34
2022-09-15T01:42:25.695Z,99068.78
2022-09-15T01:44:59.029Z,99072.28
2022-09-15T01:47:29.753Z,99073.09
2022-09-15T01:50:15.468Z,99072.00
2022-09-15T01:52:47.131Z,99074.69
2022-09-15T01:55:39.071Z,99069.66
2022-09-15T01:58:08.314Z,99069.66
2022-09-15T02:00:43.633Z,99066.69
2022-09-15T02:03:44.818Z,99073.47
2022-09-15T02:06:24.768Z,99072.06
2022-09-15T02:09:02.952Z,99072.88
2022-09-15T02:11:35.947Z,99061.94
2022-09-15T02:14:36.418Z,99066.69
2022-09-15T02:17:05.592Z,99065.91
2022-09-15T02:19:41.272Z,99055.25
2022-09-15T02:22:29.138Z,99054.44
2022-09-15T02:25:14.367Z,99049.88
2022-09-15T02:27:53.063Z,99058.47
2022-09-15T02:30:21.651Z,99053.09
2022-09-15T02:32:56.258Z,99039.13
2022-09-15T02:35:26.416Z,99041.59
2022-09-15T02:37:56.270Z,99032.72
2022-09-15T02:40:29.187Z,99040.28
2022-09-15T02:43:01.233Z,99038.38
2022-09-15T02:45:31.326Z,99040.00
2022-09-15T02:47:59.288Z,99032.22
2022-09-15T02:50:31.101Z,99037.81
2022-09-15T02:53:01.427Z,99030.25
2022-09-15T02:56:05.627Z,99038.03
2022-09-15T02:58:36.647Z,99046.91
2022-09-15T03:01:06.284Z,99046.16
2022-09-15T03:03:34.938Z,99050.75
2022-09-15T03:06:17.767Z,99039.41
2022-09-15T03:08:56.658Z,99040.78
2022-09-15T03:11:42.507Z,99039.38
2022-09-15T03:14:10.313Z,99038.81
2022-09-15T03:16:37.923Z,99030.25
2022-09-15T03:19:05.908Z,99024.38
2022-09-15T03:21:33.630Z,99025.97
2022-09-15T03:24:01.609Z,99024.66
2022-09-15T03:26:29.384Z,99024.66
2022-09-15T03:28:57.033Z,99019.00
2022-09-15T03:31:24.703Z,99027.81
2022-09-15T03:33:56.188Z,99021.56
2022-09-15T03:36:24.036Z,99025.59
2022-09-15T03:38:51.726Z,99020.56
2022-09-15T03:41:19.407Z,99028.09
2022-09-15T03:43:47.016Z,99035.28
2022-09-15T03:46:14.850Z,99022.91
2022-09-15T03:48:42.545Z,99025.59
2022-09-15T03:51:11.291Z,99029.91
2022-09-15T03:53:41.075Z,99025.84
2022-09-15T03:56:25.995Z,99032.56
2022-09-15T03:58:54.719Z,99027.72
2022-09-15T04:01:26.021Z,99026.69
2022-09-15T04:04:00.079Z,99023.72
2022-09-15T04:06:27.921Z,99034.47
2022-09-15T04:09:23.537Z,99041.16
2022-09-15T04:11:57.551Z,99030.69
2022-09-15T04:14:25.348Z,99039.00
2022-09-15T04:16:58.757Z,99036.97
2022-09-15T04:19:32.147Z,99030.03
2022-09-15T04:21:59.823Z,99039.50
2022-09-15T04:24:27.327Z,99046.00
2022-09-15T04:26:55.143Z,99033.66
2022-09-15T04:29:23.446Z,99041.25
2022-09-15T04:32:03.421Z,99036.16
2022-09-15T04:34:36.984Z,99023.00
2022-09-15T04:37:07.639Z,99022.44
2022-09-15T04:39:35.227Z,99014.13
2022-09-15T04:42:12.019Z,99009.28
2022-09-15T04:44:39.676Z,99015.09
2022-09-15T04:47:22.733Z,99016.63
2022-09-15T04:49:50.649Z,99024.00
2022-09-15T04:52:18.305Z,99016.22
2022-09-15T04:54:46.017Z,99018.34
2022-09-15T04:57:13.687Z,99012.59
2022-09-15T04:59:41.268Z,99019.34
2022-09-15T05:02:11.664Z,99021.63
2022-09-15T05:04:45.039Z,99016.84
2022-09-15T05:07:12.710Z,99026.59
2022-09-15T05:09:43.361Z,99017.50
2022-09-15T05:12:11.235Z,99018.56
2022-09-15T05:14:38.797Z,99022.34
2022-09-15T05:17:26.794Z,99033.09
2022-09-15T05:20:01.873Z,99025.59
2022-09-15T05:22:53.956Z,99021.63
2022-09-15T05:25:21.660Z,99013.13
2022-09-15T05:27:49.307Z,99021.19
2022-09-15T05:30:36.657Z,99032.78
2022-09-15T05:33:05.773Z,99028.81
2022-09-15T05:35:42.409Z,99025.09
2022-09-15T05:38:09.977Z,99033.06
2022-09-15T05:40:37.845Z,99031.50
2022-09-15T05:43:05.807Z,99029.91
2022-09-15T05:45:33.306Z,99036.94
2022-09-15T05:48:01.029Z,99038.06
2022-09-15T05:50:34.517Z,99033.47
2022-09-15T05:53:02.375Z,99033.91
2022-09-15T05:55:30.060Z,99038.38
2022-09-15T05:57:57.826Z,99046.72
2022-09-15T06:00:25.425Z,99044.94
2022-09-15T06:02:53.254Z,99044.22
2022-09-15T06:05:21.030Z,99050.94
2022-09-15T06:07:48.807Z,99046.97
2022-09-15T06:10:19.565Z,99048.13
2022-09-15T06:12:47.266Z,99049.69
2022-09-15T06:15:14.943Z,99049.69
2022-09-15T06:17:45.393Z,99053.22
2022-09-15T06:20:13.424Z,99050.00
2022-09-15T06:22:41.516Z,99052.69
2022-09-15T06:25:18.221Z,99048.44
2022-09-15T06:27:48.632Z,99046.88
2022-09-15T06:30:16.532Z,99053.69
2022-09-15T06:32:47.882Z,99052.72
2022-09-15T06:35:21.786Z,99055.19
2022-09-15T06:37:50.287Z,99059.78
2022-09-15T06:40:18.214Z,99056.03
2022-09-15T06:42:46.686Z,99051.22
2022-09-15T06:45:14.283Z,99053.50
2022-09-15T06:47:42.097Z,99049.50
2022-09-15T06:50:09.987Z,99056.91
2022-09-15T06:52:37.612Z,99056.09
2022-09-15T06:55:05.525Z,99063.72
2022-09-15T06:57:33.113Z,99055.41
2022-09-15T07:00:01.135Z,99068.53
2022-09-15T07:02:29.158Z,99074.19
2022-09-15T07:04:56.886Z,99068.53
2022-09-15T07:07:24.797Z,99076.91
2022-09-15T07:09:52.437Z,99075.00
2022-09-15T07:12:20.122Z,99072.34
2022-09-15T07:14:47.704Z,99068.94
2022-09-15T07:17:15.345Z,99066.56
2022-09-15T07:19:43.333Z,99070.91
2022-09-15T07:22:12.096Z,99073.09
2022-09-15T07:24:39.616Z,99076.88
2022-09-15T07:27:08.948Z,99083.06
2022-09-15T07:29:38.394Z,99082.81
2022-09-15T07:32:06.243Z,99079.59
2022-09-15T07:34:33.909Z,99090.59
2022-09-15T07:37:01.488Z,99088.88
2022-09-15T07:39:41.376Z,99087.03
2022-09-15T07:42:08.969Z,99094.34
2022-09-15T07:44:36.585Z,99102.41
2022-09-15T07:47:04.383Z,99104.56
2022-09-15T07:49:32.034Z,99104.25
2022-09-15T07:52:00.080Z,99098.91
2022-09-15T07:55:04.714Z,99100.28
2022-09-15T07:57:36.028Z,99102.22
2022-09-15T08:00:24.584Z,99107.69
2022-09-15T08:02:52.588Z,99111.75
2022-09-15T08:05:20.269Z,99107.16
2022-09-15T08:07:47.918Z,99113.06
2022-09-15T08:10:15.705Z,99117.38
2022-09-15T08:12:43.501Z,99106.34
2022-09-15T08:15:11.098Z,99104.44
2022-09-15T08:17:41.646Z,99105.78
2022-09-15T08:20:15.058Z,99106.38
2022-09-15T08:22:45.845Z,99104.47
2022-09-15T08:25:19.803Z,99101.19
2022-09-15T08:27:47.493Z,99108.69
2022-09-15T08:30:15.007Z,99105.94
2022-09-15T08:32:42.627Z,99102.66
2022-09-15T08:35:16.998Z,99108.66
2022-09-15T08:37:45.610Z,99113.03
2022-09-15T08:40:37.763Z,99107.31
2022-09-15T08:43:16.303Z,99107.56
2022-09-15T08:45:59.879Z,99105.03
2022-09-15T08:48:34.508Z,99097.75
2022-09-15T08:51:10.707Z,99100.13
2022-09-15T08:53:45.707Z,99101.75
2022-09-15T08:56:29.255Z,99103.53
2022-09-15T08:59:20.437Z,99103.75
2022-09-15T09:01:54.431Z,99099.94
2022-09-15T09:04:27.506Z,99106.75
2022-09-15T09:07:16.986Z,99110.00
2022-09-15T09:10:07.137Z,99102.97
2022-09-15T09:13:07.118Z,99105.50
2022-09-15T09:15:50.131Z,99111.16
2022-09-15T09:18:20.933Z,99112.19
2022-09-15T09:21:01.667Z,99112.25
2022-09-15T09:23:32.639Z,99115.22
2022-09-15T09:26:02.254Z,99115.44
2022-09-15T09:28:46.594Z,99123.19
2022-09-15T09:31:21.917Z,99114.22
2022-09-15T09:34:08.143Z,99112.53
2022-09-15T09:36:35.906Z,99115.19
2022-09-15T09:39:04.381Z,99110.31
2022-09-15T09:41:36.767Z,99111.59
2022-09-15T09:44:10.420Z,99108.56
2022-09-15T09:46:38.203Z,99102.31
2022-09-15T09:49:17.093Z,99106.47
2022-09-15T09:51:55.292Z,99091.19
2022-09-15T09:54:34.090Z,99098.13
2022-09-15T09:57:31.645Z,99098.91
2022-09-15T09:59:59.314Z,99106.28
2022-09-15T10:02:46.184Z,99103.06
2022-09-15T10:05:20.908Z,99098.31
2022-09-15T10:07:49.235Z,99092.47
2022-09-15T10:10:35.218Z,99103.53
2022-09-15T10:13:03.865Z,99102.56
2022-09-15T10:15:40.727Z,99093.69
2022-09-15T10:18:29.604Z,99080.72
2022-09-15T10:20:57.947Z,99095.34
2022-09-15T10:23:33.318Z,99097.75
2022-09-15T10:26:21.322Z,99101.03
2022-09-15T10:29:14.103Z,99097.97
2022-09-15T10:31:51.180Z,99102.84
2022-09-15T10:34:32.174Z,99097.94
2022-09-15T10:37:36.263Z,99091.38
2022-09-15T10:40:28.917Z,99100.81
2022-09-15T10:43:30.728Z,99107.63
2022-09-15T10:46:13.690Z,99103.53
2022-09-15T10:48:50.577Z,99082.72
2022-09-15T10:51:35.781Z,99087.34
2022-09-15T10:54:45.008Z,99095.47
2022-09-15T10:57:51.611Z,99100.00
2022-09-15T11:00:29.287Z,99112.22
2022-09-15T11:03:32.036Z,99113.03
2022-09-15T11:06:21.958Z,99110.47
2022-09-15T11:08:52.459Z,99103.50
2022-09-15T11:11:51.259Z,99104.63
2022-09-15T11:14:19.039Z,99100.63
2022-09-15T11:16:59.946Z,99100.00
2022-09-15T11:19:36.083Z,99103.94
2022-09-15T11:22:16.155Z,99108.91
2022-09-15T11:25:05.409Z,99103.31
2022-09-15T11:28:14.878Z,99102.38
2022-09-15T11:30:52.078Z,99103.66
2022-09-15T11:33:41.768Z,99098.19
2022-09-15T11:36:15.843Z,99096.81
2022-09-15T11:38:59.979Z,99101.63
2022-09-15T11:42:08.005Z,99099.00
2022-09-15T11:44:39.358Z,99098.94
2022-09-15T11:47:42.834Z,99101.38
2022-09-15T11:50:34.355Z,99099.31
2022-09-15T11:53:04.720Z,99091.31
2022-09-15T11:55:55.916Z,99089.59
2022-09-15T11:58:41.579Z,99087.34
2022-09-15T12:01:12.043Z,99079.88
2022-09-15T12:03:48.647Z,99091.84
2022-09-15T12:06:22.539Z,99089.72
2022-09-15T12:09:01.128Z,99088.50
2022-09-15T12:11:31.916Z,99086.16
2022-09-15T12:14:02.383Z,99089.16
2022-09-15T12:16:31.657Z,99085.22
2022-09-15T12:19:52.706Z,99088.56
2022-09-15T12:22:58.110Z,99093.78
2022-09-15T12:29:54.942Z,99105.41
2022-09-15T12:32:27.040Z,99103.75
2022-09-15T12:35:26.035Z,99100.19
2022-09-15T12:38:00.958Z,99102.84
2022-09-15T12:40:28.950Z,99103.00
2022-09-15T12:43:00.452Z,99094.78
2022-09-15T12:45:31.504Z,99101.69
2022-09-15T12:48:06.291Z,99108.28
2022-09-15T12:50:41.191Z,99099.72
2022-09-15T12:53:14.764Z,99097.19
2022-09-15T12:55:55.721Z,99092.88
2022-09-15T12:58:30.494Z,99089.69
2022-09-15T13:04:55.112Z,99089.19
2022-09-15T13:07:35.337Z,99086.72
2022-09-15T13:10:09.693Z,99089.38
2022-09-15T13:12:44.371Z,99084.22
2022-09-15T13:15:16.182Z,99083.59
2022-09-15T13:17:47.827Z,99076.81
2022-09-15T13:20:32.620Z,99084.41
2022-09-15T13:23:04.168Z,99091.69
2022-09-15T13:25:48.562Z,99095.41
2022-09-15T13:28:21.446Z,99083.03
2022-09-15T13:31:25.055Z,99087.41
2022-09-15T13:40:47.932Z,99079.03
2022-09-15T13:43:44.733Z,99075.44
2022-09-15T13:46:51.609Z,99067.50
2022-09-15T13:49:44.722Z,99072.94
2022-09-15T13:52:19.135Z,99063.44
2022-09-15T13:55:18.501Z,99065.44
2022-09-15T14:01:01.873Z,99050.88
2022-09-15T14:04:06.989Z,99054.78
2022-09-15T14:06:41.137Z,99055.06
2022-09-15T14:09:17.101Z,99054.56
2022-09-15T14:12:05.144Z,99050.56
2022-09-15T14:14:41.392Z,99060.53
2022-09-15T14:17:28.529Z,99055.63
2022-09-15T14:20:38.820Z,99044.31
2022-09-15T14:23:16.535Z,99054.88
2022-09-15T14:25:46.998Z,99046.09
2022-09-15T14:28:22.456Z,99040.34
2022-09-15T14:30:50.286Z,99044.41
2022-09-15T14:33:18.359Z,99044.44
2022-09-15T14:35:46.698Z,99047.97
2022-09-15T14:38:23.077Z,99047.41
2022-09-15T14:40:53.273Z,99046.34
2022-09-15T14:43:26.999Z,99038.56
2022-09-15T14:46:02.527Z,99041.28
2022-09-15T14:48:34.410Z,99035.53
2022-09-15T14:51:08.667Z,99035.13
2022-09-15T14:53:39.990Z,99032.63
2022-09-15T14:56:11.789Z,99029.38
2022-09-15T14:58:45.720Z,99033.34
2022-09-15T15:01:22.764Z,99029.44
2022-09-15T15:04:34.098Z,99024.97
2022-09-15T15:07:22.844Z,99027.16
2022-09-15T15:09:56.817Z,99018.78
2022-09-15T15:12:49.326Z,99016.88
2022-09-15T15:15:18.291Z,99009.63
2022-09-15T15:17:51.016Z,99016.69
2022-09-15T15:20:24.069Z,99006.78
2022-09-15T15:23:17.009Z,99006.84
2022-09-15T15:25:44.956Z,99005.00
2022-09-15T15:28:34.783Z,98998.88
2022-09-15T15:34:31.971Z,98997.13
2022-09-15T15:37:10.288Z,99006.88
2022-09-15T15:39:38.161Z,99000.38
2022-09-15T15:42:08.550Z,99005.53
2022-09-15T15:44:36.296Z,98999.09
2022-09-15T15:47:30.977Z,99001.81
2022-09-15T15:50:23.001Z,99002.38
2022-09-15T15:52:51.939Z,98998.94
2022-09-15T15:55:22.188Z,99001.91
2022-09-15T15:57:53.799Z,99004.88
2022-09-15T16:00:28.996Z,99003.50
2022-09-15T16:02:59.749Z,99017.81
2022-09-15T16:05:29.680Z,99006.19
2022-09-15T16:12:29.695Z,99007.78
2022-09-15T16:15:21.731Z,99014.81
2022-09-15T16:17:55.040Z,99009.91
2022-09-15T16:20:29.004Z,99011.34
2022-09-15T16:22:58.346Z,99015.13
2022-09-15T16:25:45.011Z,99014.84
2022-09-15T16:28:16.992Z,99012.19
2022-09-15T16:30:47.712Z,99006.78
2022-09-15T16:33:19.401Z,99008.97
2022-09-15T16:35:56.371Z,99019.75
2022-09-15T16:38:28.422Z,99018.16
2022-09-15T16:41:23.192Z,99015.72
2022-09-15T16:43:58.090Z,99020.06
2022-09-15T16:46:29.184Z,99025.19
2022-09-15T16:49:03.087Z,99021.16
2022-09-15T16:51:31.933Z,99021.16
2022-09-15T16:54:00.158Z,99013.59
2022-09-15T16:56:28.342Z,99027.38
2022-09-15T16:59:00.116Z,99022.53
2022-09-15T17:01:38.788Z,99027.66
2022-09-15T17:04:25.593Z,99026.84
2022-09-15T17:10:07.593Z,99036.00
2022-09-15T17:12:45.537Z,99028.97
2022-09-15T17:15:33.762Z,99030.06
2022-09-15T17:18:13.353Z,99033.28
2022-09-15T17:21:20.203Z,99038.44
2022-09-15T17:24:13.610Z,99038.97
2022-09-15T17:26:45.109Z,99032.22
2022-09-15T17:29:13.607Z,99033.31
2022-09-15T17:31:51.724Z,99031.66
2022-09-15T17:34:19.468Z,99037.84
2022-09-15T17:36:47.670Z,99037.28
2022-09-15T17:39:15.380Z,99043.22
2022-09-15T17:41:44.709Z,99035.41
2022-09-15T17:44:12.593Z,99031.63
2022-09-15T17:46:40.369Z,99041.06
2022-09-15T17:49:08.189Z,99033.50
2022-09-15T17:51:37.007Z,99034.31
2022-09-15T17:54:07.275Z,99043.19
2022-09-15T17:56:35.100Z,99043.19
2022-09-15T17:59:03.548Z,99040.47
2022-09-15T18:01:45.163Z,99041.53
2022-09-15T18:04:21.379Z,99047.97
2022-09-15T18:06:49.322Z,99045.56
2022-09-15T18:09:17.980Z,99042.31
2022-09-15T18:14:38.497Z,99040.97
2022-09-15T18:17:18.490Z,99050.09
2022-09-15T18:20:05.119Z,99054.13
2022-09-15T18:22:35.831Z,99042.25
2022-09-15T18:25:28.835Z,99053.50
2022-09-15T18:28:00.157Z,99052.16
2022-09-15T18:30:31.289Z,99057.50
2022-09-15T18:33:19.988Z,99051.81
2022-09-15T18:35:54.836Z,99048.84
2022-09-15T18:38:23.508Z,99039.97
2022-09-15T18:40:54.314Z,99052.16
2022-09-15T18:43:28.214Z,99045.69
2022-09-15T18:46:00.691Z,99052.72
2022-09-15T18:48:29.708Z,99046.25
2022-09-15T18:50:57.344Z,99045.44
2022-09-15T18:53:26.110Z,99045.72
2022-09-15T18:55:54.331Z,99060.00
2022-09-15T18:58:22.834Z,99051.66
2022-09-15T19:01:07.070Z,99048.69
2022-09-15T19:03:43.824Z,99060.53
2022-09-15T19:06:12.430Z,99057.03
2022-09-15T19:08:40.623Z,99049.75
2022-09-15T19:11:09.398Z,99055.91
2022-09-15T19:13:37.077Z,99054.03
2022-09-15T19:16:22.970Z,99058.34
2022-09-15T19:18:57.346Z,99058.63
2022-09-15T19:21:27.567Z,99050.81
2022-09-15T19:23:59.095Z,99051.91
2022-09-15T19:26:33.245Z,99053.22
2022-09-15T19:29:01.442Z,99061.00
2022-09-15T19:31:59.142Z,99066.38
2022-09-15T19:35:01.836Z,99062.56
2022-09-15T19:38:16.552Z,99064.97
2022-09-15T19:41:01.204Z,99067.66
2022-09-15T19:43:43.861Z,99073.84
2022-09-15T19:46:26.086Z,99076.50
2022-09-15T19:48:54.088Z,99071.13
2022-09-15T19:51:37.398Z,99076.81
2022-09-15T19:54:37.645Z,99077.69
2022-09-15T19:57:14.658Z,99080.91
2022-09-15T19:59:53.812Z,99075.53
2022-09-15T20:03:12.702Z,99066.34
2022-09-15T20:05:57.807Z,99077.41
2022-09-15T20:08:35.108Z,99075.72
2022-09-15T20:11:11.202Z,99075.97
2022-09-15T20:13:46.480Z,99075.13
2022-09-15T20:17:01.422Z,99085.63
2022-09-15T20:20:12.189Z,99081.78
2022-09-15T20:22:42.610Z,99083.16
2022-09-15T20:25:44.472Z,99087.47
2022-09-15T20:28:19.250Z,99084.72
2022-09-15T20:31:16.943Z,99077.69
2022-09-15T20:33:51.795Z,99086.84
2022-09-15T20:36:40.598Z,99084.44
2022-09-15T20:39:13.542Z,99082.75
2022-09-15T20:41:45.289Z,99071.38
2022-09-15T20:44:13.685Z,99074.84
2022-09-15T20:46:41.878Z,99072.38
2022-09-15T20:49:10.593Z,99081.44
2022-09-15T20:51:38.666Z,99080.34
2022-09-15T20:54:06.387Z,99089.66
2022-09-15T20:56:35.514Z,99088.84
2022-09-15T20:59:05.101Z,99086.09
2022-09-15T21:01:37.782Z,99094.38
2022-09-15T21:04:07.983Z,99094.88
2022-09-15T21:06:36.527Z,99084.09
2022-09-15T21:09:05.844Z,99084.34
2022-09-15T21:11:34.489Z,99082.91
2022-09-15T21:14:02.334Z,99080.75
2022-09-15T21:16:30.722Z,99080.44
2022-09-15T21:18:59.162Z,99085.28
2022-09-15T21:21:30.201Z,99087.53
2022-09-15T21:24:02.016Z,99089.16
2022-09-15T21:26:57.424Z,99084.84
2022-09-15T21:29:26.536Z,99086.66
2022-09-15T21:31:58.080Z,99096.59
2022-09-15T21:34:26.541Z,99098.13
2022-09-15T21:36:54.453Z,99111.31
2022-09-15T21:39:22.120Z,99109.94
2022-09-15T21:41:50.234Z,99102.41
2022-09-15T21:44:18.098Z,99112.03
2022-09-15T21:46:47.126Z,99106.09
2022-09-15T21:49:15.058Z,99122.19
2022-09-15T21:51:42.769Z,99110.88
2022-09-15T21:54:10.515Z,99116.25
2022-09-15T21:56:38.488Z,99117.00
2022-09-15T21:59:08.324Z,99116.94
2022-09-15T22:01:36.482Z,99118.50
2022-09-15T22:04:06.870Z,99120.34
2022-09-15T22:06:36.613Z,99127.59
2022-09-15T22:09:15.988Z,99129.47
2022-09-15T22:11:44.467Z,99128.00
2022-09-15T22:14:13.293Z,99133.63
2022-09-15T22:16:42.427Z,99131.75
2022-09-15T22:19:11.638Z,99129.59
2022-09-15T22:21:42.158Z,99137.88
2022-09-15T22:24:12.950Z,99138.03
2022-09-15T22:26:42.628Z,99130.50
2022-09-15T22:29:10.835Z,99146.34
2022-09-15T22:31:38.828Z,99136.09
2022-09-15T22:34:07.318Z,99136.09
2022-09-15T22:36:35.398Z,99146.50
2022-09-15T22:39:06.361Z,99145.13
2022-09-15T22:41:35.632Z,99145.84
2022-09-15T22:44:04.464Z,99141.47
2022-09-15T22:46:32.682Z,99150.81
2022-09-15T22:49:00.278Z,99155.63
2022-09-15T22:51:28.124Z,99151.28
2022-09-15T22:53:57.504Z,99149.34
2022-09-15T22:56:26.517Z,99152.53
2022-09-15T22:58:55.709Z,99155.22
2022-09-15T23:01:26.617Z,99148.78
2022-09-15T23:03:57.546Z,99151.47
2022-09-15T23:06:27.642Z,99153.03
2022-09-15T23:08:57.623Z,99147.31
2022-09-15T23:11:27.564Z,99153.75
2022-09-15T23:13:56.163Z,99151.28
2022-09-15T23:16:25.464Z,99151.22
2022-09-15T23:18:54.399Z,99148.22
2022-09-15T23:21:22.781Z,99146.59
2022-09-15T23:23:52.963Z,99155.69
2022-09-15T23:26:23.338Z,99156.97
2022-09-15T23:28:51.529Z,99152.91
2022-09-15T23:31:20.050Z,99150.22
2022-09-15T23:33:48.047Z,99152.34
2022-09-15T23:36:21.326Z,99152.09
2022-09-15T23:38:49.717Z,99162.81
2022-09-15T23:41:18.367Z,99148.63
2022-09-15T23:43:46.659Z,99149.44
2022-09-15T23:46:14.572Z,99154.47
2022-09-15T23:48:42.435Z,99164.03
2022-09-15T23:51:10.527Z,99163.47
2022-09-15T23:53:38.103Z,99167.44
2022-09-15T23:56:06.025Z,99164.44
2022-09-15T23:58:33.635Z,99161.97
